createdAt,value
2019-02-18T00:01:52.506Z,99.90
2019-02-18T00:04:22.758Z,99.90
2019-02-18T00:06:52.967Z,99.90
2019-02-18T00:09:23.229Z,99.90
2019-02-18T00:11:53.422Z,99.90
2019-02-18T00:14:23.683Z,99.90
2019-02-18T00:16:53.960Z,99.90
2019-02-18T00:19:24.130Z,99.90
2019-02-18T00:21:54.437Z,99.90
2019-02-18T00:24:24.649Z,99.90
2019-02-18T00:26:54.802Z,99.90
2019-02-18T00:29:25.016Z,99.90
2019-02-18T00:31:55.175Z,99.90
2019-02-18T00:34:25.466Z,99.90
2019-02-18T00:36:55.629Z,99.90
2019-02-18T00:39:26.522Z,99.90
2019-02-18T00:41:56.699Z,99.90
2019-02-18T00:44:26.986Z,99.90
2019-02-18T00:46:57.157Z,99.90
2019-02-18T00:49:27.343Z,99.90
2019-02-18T00:51:57.523Z,99.90
2019-02-18T00:54:27.917Z,99.90
2019-02-18T00:56:58.183Z,99.90
2019-02-18T00:59:28.374Z,99.90
2019-02-18T01:01:58.629Z,99.90
2019-02-18T01:04:30.350Z,99.90
2019-02-18T01:07:00.522Z,99.90
2019-02-18T01:09:30.913Z,99.90
2019-02-18T01:12:01.085Z,99.90
2019-02-18T01:14:31.544Z,99.90
2019-02-18T01:17:01.703Z,99.90
2019-02-18T01:19:31.881Z,99.90
2019-02-18T01:22:02.059Z,99.90
2019-02-18T01:24:32.235Z,99.90
2019-02-18T01:27:02.401Z,99.90
2019-02-18T01:29:32.580Z,99.90
2019-02-18T01:32:02.736Z,99.90
2019-02-18T01:34:33.421Z,99.90
2019-02-18T01:37:03.578Z,99.90
2019-02-18T01:39:33.764Z,99.90
2019-02-18T01:42:03.929Z,99.90
2019-02-18T01:44:34.186Z,99.90
2019-02-18T01:47:04.471Z,99.90
2019-02-18T01:49:34.838Z,99.90
2019-02-18T01:52:05.070Z,99.90
2019-02-18T01:54:35.248Z,99.90
2019-02-18T01:57:05.409Z,99.90
2019-02-18T01:59:35.588Z,99.90
2019-02-18T02:02:05.743Z,99.90
2019-02-18T02:04:36.037Z,99.90
2019-02-18T02:07:06.296Z,99.90
2019-02-18T02:09:36.885Z,99.90
2019-02-18T02:12:07.155Z,99.90
2019-02-18T02:14:37.343Z,99.90
2019-02-18T02:17:07.496Z,99.90
2019-02-18T02:19:38.020Z,99.90
2019-02-18T02:22:08.194Z,99.90
2019-02-18T02:24:38.364Z,99.90
2019-02-18T02:27:08.533Z,99.90
2019-02-18T02:29:38.704Z,99.90
2019-02-18T02:32:08.873Z,99.90
2019-02-18T02:34:39.044Z,99.90
2019-02-18T02:37:10.069Z,99.90
2019-02-18T02:39:40.252Z,99.90
2019-02-18T02:42:10.506Z,99.90
2019-02-18T02:44:42.197Z,99.90
2019-02-18T02:47:12.507Z,99.90
2019-02-18T02:49:42.691Z,99.90
2019-02-18T02:52:12.853Z,99.90
2019-02-18T02:54:43.135Z,99.90
2019-02-18T02:57:13.437Z,99.90
2019-02-18T02:59:43.621Z,99.90
2019-02-18T03:02:13.895Z,99.90
2019-02-18T03:04:44.068Z,99.90
2019-02-18T03:07:14.424Z,99.90
2019-02-18T03:09:44.608Z,99.90
2019-02-18T03:12:14.797Z,99.90
2019-02-18T03:14:46.500Z,99.90
2019-02-18T03:17:16.727Z,99.90
2019-02-18T03:19:46.998Z,99.90
2019-02-18T03:22:17.255Z,99.90
2019-02-18T03:25:09.960Z,99.90
2019-02-18T03:27:40.137Z,99.90
2019-02-18T03:30:16.068Z,99.90
2019-02-18T03:32:46.680Z,99.90
2019-02-18T03:35:16.894Z,99.90
2019-02-18T03:37:47.187Z,99.90
2019-02-18T03:40:17.588Z,99.90
2019-02-18T03:42:47.969Z,99.90
2019-02-18T03:45:18.279Z,99.90
2019-02-18T03:47:48.552Z,99.90
2019-02-18T03:50:18.740Z,99.90
2019-02-18T03:52:48.958Z,99.90
2019-02-18T03:55:19.347Z,99.90
2019-02-18T03:57:49.680Z,99.90
2019-02-18T04:00:19.981Z,99.90
2019-02-18T04:02:50.280Z,99.90
2019-02-18T04:05:20.473Z,99.90
2019-02-18T04:07:50.792Z,99.90
2019-02-18T04:10:22.725Z,99.90
2019-02-18T04:12:52.897Z,99.90
2019-02-18T04:15:23.199Z,99.90
2019-02-18T04:17:53.373Z,99.90
2019-02-18T04:20:23.568Z,99.90
2019-02-18T04:22:53.737Z,99.90
2019-02-18T04:25:24.158Z,99.90
2019-02-18T04:27:54.343Z,99.90
2019-02-18T04:30:24.564Z,99.90
2019-02-18T04:32:54.775Z,99.90
2019-02-18T04:35:24.959Z,99.90
2019-02-18T04:37:55.180Z,99.90
2019-02-18T04:40:25.360Z,99.90
2019-02-18T04:42:55.772Z,99.90
2019-02-18T04:45:26.273Z,99.90
2019-02-18T04:47:56.577Z,99.90
2019-02-18T04:50:26.857Z,99.90
2019-02-18T04:52:57.064Z,99.90
2019-02-18T04:55:27.251Z,99.90
2019-02-18T04:57:57.465Z,99.90
2019-02-18T05:00:27.649Z,99.90
2019-02-18T05:02:57.869Z,99.90
2019-02-18T05:05:28.057Z,99.90
2019-02-18T05:07:58.483Z,99.90
2019-02-18T05:10:28.675Z,99.90
2019-02-18T05:12:58.884Z,99.90
2019-02-18T05:15:29.067Z,99.90
2019-02-18T05:17:59.276Z,99.90
2019-02-18T05:20:29.565Z,99.90
2019-02-18T05:22:59.777Z,99.90
2019-02-18T05:25:30.639Z,99.90
2019-02-18T05:28:02.406Z,99.90
2019-02-18T05:30:32.693Z,99.90
2019-02-18T05:33:03.088Z,99.90
2019-02-18T05:35:33.279Z,99.90
2019-02-18T05:38:03.506Z,99.90
2019-02-18T05:40:33.863Z,99.90
2019-02-18T05:43:04.054Z,99.90
2019-02-18T05:45:34.329Z,99.90
2019-02-18T05:48:04.600Z,99.90
2019-02-18T05:50:34.775Z,99.90
2019-02-18T05:53:14.226Z,99.90
2019-02-18T05:55:43.725Z,99.90
2019-02-18T05:58:14.620Z,99.90
2019-02-18T06:00:44.813Z,99.90
2019-02-18T06:03:15.028Z,99.90
2019-02-18T06:05:45.186Z,99.90
2019-02-18T06:08:15.373Z,99.90
2019-02-18T06:10:45.756Z,99.90
2019-02-18T06:13:15.589Z,99.90
2019-02-18T06:15:45.779Z,99.90
2019-02-18T06:18:17.915Z,99.90
2019-02-18T06:20:48.297Z,99.90
2019-02-18T06:23:17.920Z,99.90
2019-02-18T06:25:48.685Z,99.90
2019-02-18T06:28:18.393Z,99.90
2019-02-18T06:30:48.771Z,99.90
2019-02-18T06:33:20.102Z,99.90
2019-02-18T06:35:50.457Z,99.90
2019-02-18T06:38:21.639Z,99.90
2019-02-18T06:40:56.466Z,99.90
2019-02-18T06:43:26.853Z,99.90
2019-02-18T06:46:07.661Z,99.90
2019-02-18T06:48:39.481Z,99.90
2019-02-18T06:51:09.654Z,99.90
2019-02-18T06:53:40.051Z,99.90
2019-02-18T06:56:10.310Z,99.90
2019-02-18T06:58:47.997Z,99.90
2019-02-18T07:01:22.611Z,99.90
2019-02-18T07:03:55.771Z,99.90
2019-02-18T07:06:27.561Z,99.90
2019-02-18T07:09:18.859Z,99.90
2019-02-18T07:11:53.456Z,99.90
2019-02-18T07:14:23.644Z,99.90
2019-02-18T07:16:54.168Z,99.90
2019-02-18T07:19:24.447Z,99.90
2019-02-18T07:21:54.138Z,99.90
2019-02-18T07:24:24.439Z,99.90
2019-02-18T07:26:54.795Z,99.90
2019-02-18T07:29:24.983Z,99.90
2019-02-18T07:34:45.829Z,99.90
2019-02-18T07:37:16.327Z,99.90
2019-02-18T07:39:46.708Z,99.90
2019-02-18T07:42:16.888Z,99.90
2019-02-18T07:44:47.096Z,99.90
2019-02-18T07:47:17.271Z,99.90
2019-02-18T07:49:47.521Z,99.90
2019-02-18T07:52:17.697Z,99.90
2019-02-18T07:54:47.997Z,99.90
2019-02-18T07:57:18.189Z,99.90
2019-02-18T07:59:48.491Z,99.90
2019-02-18T08:02:18.876Z,99.90
2019-02-18T08:04:49.078Z,99.90
2019-02-18T08:07:19.315Z,99.90
2019-02-18T08:09:49.625Z,99.90
2019-02-18T08:12:19.792Z,99.90
2019-02-18T08:14:49.996Z,99.90
2019-02-18T08:17:20.319Z,99.90
2019-02-18T08:19:50.613Z,99.90
2019-02-18T08:22:21.004Z,99.90
2019-02-18T08:24:51.201Z,99.90
2019-02-18T08:27:21.388Z,99.90
2019-02-18T08:29:51.600Z,99.90
2019-02-18T08:32:21.806Z,99.90
2019-02-18T08:34:51.980Z,99.90
2019-02-18T08:37:22.157Z,99.90
2019-02-18T08:39:52.352Z,99.90
2019-02-18T08:42:22.618Z,99.90
2019-02-18T08:44:52.804Z,99.90
2019-02-18T08:47:23.003Z,99.90
2019-02-18T08:49:53.184Z,99.90
2019-02-18T08:52:23.336Z,99.90
2019-02-18T08:54:56.592Z,99.90
2019-02-18T08:57:25.287Z,99.90
2019-02-18T08:59:55.468Z,99.90
2019-02-18T09:02:25.829Z,99.90
2019-02-18T09:04:56.080Z,99.90
2019-02-18T09:07:26.172Z,99.90
2019-02-18T09:09:56.348Z,99.90
2019-02-18T09:12:26.609Z,99.90
2019-02-18T09:14:56.799Z,99.90
2019-02-18T09:17:26.941Z,99.90
2019-02-18T09:19:57.122Z,99.90
2019-02-18T09:22:40.793Z,99.90
2019-02-18T09:25:15.702Z,99.90
2019-02-18T09:27:45.957Z,99.90
2019-02-18T09:30:17.768Z,99.90
2019-02-18T09:32:49.448Z,99.90
2019-02-18T09:35:19.619Z,99.90
2019-02-18T09:37:49.849Z,99.90
2019-02-18T09:40:20.030Z,99.90
2019-02-18T09:42:51.764Z,99.90
2019-02-18T09:45:22.049Z,99.90
2019-02-18T09:47:54.172Z,99.90
2019-02-18T09:50:24.055Z,99.90
2019-02-18T09:52:54.218Z,99.90
2019-02-18T09:55:24.602Z,99.90
2019-02-18T09:57:56.264Z,99.90
2019-02-18T10:00:28.198Z,99.90
2019-02-18T10:02:58.360Z,99.90
2019-02-18T10:05:28.548Z,99.90
2019-02-18T10:07:58.704Z,99.90
2019-02-18T10:10:28.897Z,99.90
2019-02-18T10:12:59.686Z,99.90
2019-02-18T10:15:30.008Z,99.90
2019-02-18T10:18:00.175Z,99.90
2019-02-18T10:20:30.351Z,99.90
2019-02-18T10:23:00.663Z,99.90
2019-02-18T10:25:30.818Z,99.90
2019-02-18T10:28:00.977Z,99.90
2019-02-18T10:30:31.173Z,99.90
2019-02-18T10:33:01.433Z,99.90
2019-02-18T10:35:31.815Z,99.90
2019-02-18T10:38:02.040Z,99.90
2019-02-18T10:40:32.219Z,99.90
2019-02-18T10:43:02.500Z,99.90
2019-02-18T10:45:32.733Z,99.90
2019-02-18T10:48:02.922Z,99.90
2019-02-18T10:50:33.087Z,99.90
2019-02-18T10:53:03.384Z,99.90
2019-02-18T10:55:33.541Z,99.90
2019-02-18T10:58:03.720Z,99.90
2019-02-18T11:00:33.960Z,99.90
2019-02-18T11:03:04.207Z,99.90
2019-02-18T11:05:34.360Z,99.90
2019-02-18T11:08:04.650Z,99.90
2019-02-18T11:10:36.130Z,99.90
2019-02-18T11:13:07.823Z,99.90
2019-02-18T11:15:39.501Z,99.90
2019-02-18T11:18:11.196Z,99.90
2019-02-18T11:20:41.762Z,99.90
2019-02-18T11:23:12.013Z,99.90
2019-02-18T11:25:42.277Z,99.90
2019-02-18T11:28:12.457Z,99.90
2019-02-18T11:30:42.824Z,99.90
2019-02-18T11:33:12.996Z,99.90
2019-02-18T11:35:43.260Z,99.90
2019-02-18T11:38:13.460Z,99.90
2019-02-18T11:40:43.596Z,99.90
2019-02-18T11:43:13.781Z,99.90
2019-02-18T11:45:45.751Z,99.90
2019-02-18T11:48:16.125Z,99.90
2019-02-18T11:50:46.279Z,99.90
2019-02-18T11:53:16.460Z,99.90
2019-02-18T11:55:46.641Z,98.30
2019-02-18T11:58:20.395Z,96.60
2019-02-18T12:00:50.570Z,95.50
2019-02-18T12:03:20.759Z,91.90
2019-02-18T12:05:50.892Z,91.20
2019-02-18T12:08:22.497Z,93.20
2019-02-18T12:10:52.668Z,90.30
2019-02-18T12:13:22.939Z,90.80
2019-02-18T12:15:53.111Z,88.10
2019-02-18T12:18:23.407Z,83.30
2019-02-18T12:20:53.563Z,84.40
2019-02-18T12:23:23.740Z,84.60
2019-02-18T12:25:54.020Z,85.00
2019-02-18T12:28:25.156Z,84.80
2019-02-18T12:30:55.519Z,82.20
2019-02-18T12:33:26.008Z,80.20
2019-02-18T12:35:56.271Z,80.20
2019-02-18T12:38:26.444Z,80.50
2019-02-18T12:40:57.700Z,77.10
2019-02-18T12:43:29.347Z,77.40
2019-02-18T12:45:59.742Z,79.60
2019-02-18T12:48:29.933Z,78.20
2019-02-18T12:51:00.190Z,79.30
2019-02-18T12:53:30.458Z,75.70
2019-02-18T12:56:00.772Z,74.50
2019-02-18T12:58:30.952Z,75.30
2019-02-18T13:01:01.751Z,76.70
2019-02-18T13:03:31.945Z,75.50
2019-02-18T13:06:02.109Z,75.10
2019-02-18T13:08:32.725Z,75.10
2019-02-18T13:11:03.094Z,76.20
2019-02-18T13:13:33.270Z,75.30
2019-02-18T13:16:03.604Z,76.90
2019-02-18T13:18:34.182Z,76.60
2019-02-18T13:21:04.344Z,75.30
2019-02-18T13:23:34.644Z,75.90
2019-02-18T13:26:05.081Z,75.20
2019-02-18T13:28:35.351Z,75.20
2019-02-18T13:31:05.582Z,73.90
2019-02-18T13:33:36.068Z,73.40
2019-02-18T13:36:10.540Z,74.90
2019-02-18T13:38:41.772Z,76.30
2019-02-18T13:41:13.445Z,72.10
2019-02-18T13:43:43.828Z,71.10
2019-02-18T13:46:14.280Z,72.50
2019-02-18T13:48:44.559Z,71.30
2019-02-18T13:51:14.788Z,72.30
2019-02-18T13:53:44.985Z,70.90
2019-02-18T13:56:15.202Z,70.60
2019-02-18T13:58:45.372Z,70.70
2019-02-18T14:01:15.592Z,70.70
2019-02-18T14:03:45.769Z,69.30
2019-02-18T14:06:15.915Z,68.50
2019-02-18T14:08:46.096Z,64.40
2019-02-18T14:11:17.156Z,67.50
2019-02-18T14:13:47.544Z,67.90
2019-02-18T14:16:17.703Z,68.40
2019-02-18T14:18:47.874Z,67.80
2019-02-18T14:21:18.104Z,67.20
2019-02-18T14:23:48.290Z,66.00
2019-02-18T14:26:18.588Z,66.50
2019-02-18T14:28:48.772Z,67.30
2019-02-18T14:31:19.140Z,69.20
2019-02-18T14:33:49.499Z,60.40
2019-02-18T14:36:19.675Z,59.30
2019-02-18T14:38:50.096Z,58.80
2019-02-18T14:41:20.460Z,56.20
2019-02-18T14:43:50.652Z,54.90
2019-02-18T14:46:20.816Z,54.80
2019-02-18T14:48:51.004Z,52.90
2019-02-18T14:51:21.350Z,54.20
2019-02-18T14:53:51.599Z,53.70
2019-02-18T14:56:22.277Z,49.80
2019-02-18T14:58:52.605Z,49.30
2019-02-18T15:01:22.881Z,50.30
2019-02-18T15:03:53.790Z,52.40
2019-02-18T15:06:24.752Z,53.80
2019-02-18T15:08:55.976Z,53.80
2019-02-18T15:11:26.798Z,52.70
2019-02-18T15:13:57.830Z,52.10
2019-02-18T15:16:28.653Z,51.70
2019-02-18T15:19:00.985Z,50.90
2019-02-18T15:21:31.536Z,50.60
2019-02-18T15:24:01.917Z,52.50
2019-02-18T15:26:31.846Z,50.30
2019-02-18T15:29:02.059Z,51.20
2019-02-18T15:31:32.255Z,51.10
2019-02-18T15:34:02.435Z,50.60
2019-02-18T15:36:32.847Z,50.70
2019-02-18T15:39:03.757Z,50.90
2019-02-18T15:41:35.844Z,50.70
2019-02-18T15:44:06.091Z,51.30
2019-02-18T15:46:36.375Z,51.90
2019-02-18T15:49:06.908Z,51.90
2019-02-18T15:51:37.191Z,51.50
2019-02-18T15:54:08.172Z,51.70
2019-02-18T15:56:38.459Z,52.60
2019-02-18T15:59:08.630Z,54.70
2019-02-18T16:01:39.561Z,56.00
2019-02-18T16:04:09.747Z,53.80
2019-02-18T16:06:40.040Z,53.90
2019-02-18T16:09:10.392Z,55.50
2019-02-18T16:11:40.580Z,56.50
2019-02-18T16:14:10.743Z,58.00
2019-02-18T16:16:41.651Z,58.80
2019-02-18T16:19:11.816Z,59.70
2019-02-18T16:21:42.120Z,60.10
2019-02-18T16:24:19.745Z,60.00
2019-02-18T16:26:44.304Z,59.90
2019-02-18T16:29:17.733Z,59.40
2019-02-18T16:31:48.001Z,59.30
2019-02-18T16:34:18.261Z,59.40
2019-02-18T16:36:48.519Z,59.50
2019-02-18T16:39:19.005Z,60.00
2019-02-18T16:41:49.168Z,60.30
2019-02-18T16:44:19.441Z,61.10
2019-02-18T16:46:49.635Z,61.20
2019-02-18T16:49:22.816Z,61.60
2019-02-18T16:51:52.885Z,61.90
2019-02-18T16:54:23.211Z,62.40
2019-02-18T16:56:53.393Z,62.70
2019-02-18T16:59:23.560Z,62.60
2019-02-18T17:01:54.239Z,62.90
2019-02-18T17:04:27.204Z,62.90
2019-02-18T17:06:56.276Z,63.50
2019-02-18T17:09:26.560Z,63.70
2019-02-18T17:11:56.745Z,64.20
2019-02-18T17:14:27.057Z,64.40
2019-02-18T17:16:57.215Z,65.50
2019-02-18T17:19:27.376Z,65.40
2019-02-18T17:21:57.714Z,65.70
2019-02-18T17:24:27.859Z,66.10
2019-02-18T17:27:25.448Z,66.10
2019-02-18T17:29:55.605Z,67.30
2019-02-18T17:32:26.103Z,67.90
2019-02-18T17:34:56.321Z,67.70
2019-02-18T17:37:26.494Z,67.60
2019-02-18T17:39:56.848Z,67.80
2019-02-18T17:42:27.029Z,68.60
2019-02-18T17:44:57.191Z,69.60
2019-02-18T17:47:27.396Z,71.00
2019-02-18T17:49:57.681Z,69.80
2019-02-18T17:52:27.860Z,70.00
2019-02-18T17:54:58.010Z,70.10
2019-02-18T17:57:28.198Z,70.70
2019-02-18T17:59:58.656Z,70.50
2019-02-18T18:02:28.926Z,71.10
2019-02-18T18:04:59.237Z,71.40
2019-02-18T18:07:29.719Z,71.50
2019-02-18T18:09:59.896Z,72.90
2019-02-18T18:12:30.137Z,72.60
2019-02-18T18:15:00.391Z,72.90
2019-02-18T18:17:30.696Z,72.50
2019-02-18T18:20:00.953Z,73.20
2019-02-18T18:22:31.156Z,72.80
2019-02-18T18:25:01.335Z,72.80
2019-02-18T18:27:31.939Z,73.30
2019-02-18T18:30:02.252Z,75.90
2019-02-18T18:32:33.176Z,75.90
2019-02-18T18:35:03.922Z,76.60
2019-02-18T18:37:34.852Z,78.30
2019-02-18T18:40:10.970Z,78.70
2019-02-18T18:42:41.160Z,78.80
2019-02-18T18:45:17.133Z,78.00
2019-02-18T18:47:47.545Z,79.30
2019-02-18T18:50:19.517Z,79.20
2019-02-18T18:52:49.972Z,78.20
2019-02-18T18:55:20.303Z,77.90
2019-02-18T18:57:50.552Z,77.20
2019-02-18T19:00:25.044Z,77.30
2019-02-18T19:02:55.257Z,78.20
2019-02-18T19:05:26.082Z,79.00
2019-02-18T19:07:58.059Z,79.00
2019-02-18T19:10:28.250Z,80.00
2019-02-18T19:12:58.455Z,80.40
2019-02-18T19:15:28.658Z,80.90
2019-02-18T19:17:58.972Z,81.20
2019-02-18T19:20:29.334Z,82.00
2019-02-18T19:22:59.552Z,82.50
2019-02-18T19:25:29.745Z,82.90
2019-02-18T19:27:59.962Z,83.40
2019-02-18T19:30:32.277Z,84.00
2019-02-18T19:33:02.476Z,84.00
2019-02-18T19:35:32.771Z,85.90
2019-02-18T19:38:02.979Z,85.10
2019-02-18T19:40:33.169Z,86.00
2019-02-18T19:43:03.384Z,86.50
2019-02-18T19:45:33.573Z,87.40
2019-02-18T19:48:03.869Z,87.60
2019-02-18T19:50:34.048Z,88.30
2019-02-18T19:53:04.335Z,89.40
2019-02-18T19:55:34.621Z,88.60
2019-02-18T19:58:05.021Z,88.30
2019-02-18T20:00:35.308Z,88.20
2019-02-18T20:03:05.616Z,87.70
2019-02-18T20:05:35.892Z,87.50
2019-02-18T20:08:08.095Z,88.10
2019-02-18T20:10:39.399Z,88.00
2019-02-18T20:13:09.599Z,87.70
2019-02-18T20:15:39.864Z,87.60
2019-02-18T20:18:10.104Z,88.30
2019-02-18T20:20:40.275Z,89.10
2019-02-18T20:23:10.692Z,89.30
2019-02-18T20:25:40.888Z,89.80
2019-02-18T20:28:11.124Z,90.00
2019-02-18T20:30:41.323Z,90.10
2019-02-18T20:33:11.498Z,90.60
2019-02-18T20:35:41.704Z,91.70
2019-02-18T20:38:11.904Z,92.20
2019-02-18T20:40:42.128Z,92.70
2019-02-18T20:43:12.309Z,93.00
2019-02-18T20:45:42.622Z,93.40
2019-02-18T20:48:12.840Z,93.10
2019-02-18T20:50:43.340Z,92.30
2019-02-18T20:53:13.701Z,92.70
2019-02-18T20:55:44.101Z,93.30
2019-02-18T20:58:14.325Z,93.60
2019-02-18T21:00:44.557Z,94.20
2019-02-18T21:03:14.939Z,94.70
2019-02-18T21:05:45.165Z,95.00
2019-02-18T21:08:16.278Z,95.30
2019-02-18T21:10:46.763Z,94.90
2019-02-18T21:13:16.948Z,95.10
2019-02-18T21:15:47.165Z,95.40
2019-02-18T21:18:17.548Z,94.90
2019-02-18T21:20:47.755Z,95.00
2019-02-18T21:23:18.018Z,95.20
2019-02-18T21:25:48.294Z,95.30
2019-02-18T21:28:18.463Z,95.60
2019-02-18T21:30:49.253Z,96.20
2019-02-18T21:33:19.377Z,96.30
2019-02-18T21:35:50.104Z,96.90
2019-02-18T21:38:20.471Z,96.50
2019-02-18T21:40:50.808Z,97.60
2019-02-18T21:43:21.025Z,97.70
2019-02-18T21:45:51.314Z,98.90
2019-02-18T21:48:21.491Z,99.10
2019-02-18T21:50:51.799Z,99.70
2019-02-18T21:53:22.058Z,99.80
2019-02-18T21:55:52.349Z,99.90
2019-02-18T21:58:22.935Z,99.90
2019-02-18T22:00:53.206Z,99.90
2019-02-18T22:03:23.340Z,99.80
2019-02-18T22:05:53.538Z,99.90
2019-02-18T22:08:25.324Z,99.40
2019-02-18T22:10:55.675Z,99.90
2019-02-18T22:13:25.860Z,99.90
2019-02-18T22:15:56.159Z,99.90
2019-02-18T22:18:26.340Z,99.90
2019-02-18T22:20:56.560Z,99.90
2019-02-18T22:23:26.820Z,99.90
2019-02-18T22:25:57.075Z,99.90
2019-02-18T22:28:27.265Z,99.90
2019-02-18T22:30:57.536Z,99.90
2019-02-18T22:33:27.719Z,99.90
2019-02-18T22:35:57.946Z,99.90
2019-02-18T22:38:28.158Z,99.90
2019-02-18T22:40:58.552Z,99.90
2019-02-18T22:43:28.844Z,99.90
2019-02-18T22:46:00.561Z,99.90
2019-02-18T22:48:30.761Z,99.90
2019-02-18T22:51:00.968Z,99.90
2019-02-18T22:53:31.255Z,99.90
2019-02-18T22:56:01.900Z,99.90
2019-02-18T22:58:32.098Z,99.90
2019-02-18T23:01:03.523Z,99.90
2019-02-18T23:03:33.707Z,99.90
2019-02-18T23:06:04.256Z,99.90
2019-02-18T23:08:34.456Z,99.90
2019-02-18T23:11:04.880Z,99.90
2019-02-18T23:13:35.191Z,99.90
2019-02-18T23:16:06.404Z,99.90
2019-02-18T23:18:36.620Z,99.90
2019-02-18T23:21:06.925Z,99.90
2019-02-18T23:23:37.220Z,99.90
2019-02-18T23:26:07.439Z,99.90
2019-02-18T23:28:37.748Z,99.90
2019-02-18T23:31:07.985Z,99.90
2019-02-18T23:33:38.266Z,99.90
2019-02-18T23:36:08.686Z,99.90
2019-02-18T23:38:38.877Z,99.90
2019-02-18T23:41:09.070Z,99.90
2019-02-18T23:43:39.251Z,99.90
2019-02-18T23:46:09.474Z,99.90
2019-02-18T23:48:39.690Z,99.90
2019-02-18T23:51:09.944Z,99.90
2019-02-18T23:53:40.163Z,99.90
2019-02-18T23:56:10.625Z,99.90
2019-02-18T23:58:40.837Z,99.90
